sensor_id;sensor_type;location;lat;lon;timestamp;P1;durP1;ratioP1;P2;durP2;ratioP2
10056;SDS011;5068;51.286;7.518;2023-05-02T00:00:53;3.35;;;1.83;;
10056;SDS011;5068;51.286;7.518;2023-05-02T00:02:26;3.92;;;2.00;;
10056;SDS011;5068;51.286;7.518;2023-05-02T00:04:00;5.22;;;1.90;;
10056;SDS011;5068;51.286;7.518;2023-05-02T00:05:33;2.97;;;2.17;;
10056;SDS011;5068;51.286;7.518;2023-05-02T00:07:06;3.35;;;2.20;;
10056;SDS011;5068;51.286;7.518;2023-05-02T00:08:39;6.47;;;1.70;;
10056;SDS011;5068;51.286;7.518;2023-05-02T00:10:12;3.72;;;2.42;;
10056;SDS011;5068;51.286;7.518;2023-05-02T00:11:47;3.78;;;1.85;;
10056;SDS011;5068;51.286;7.518;2023-05-02T00:13:20;3.50;;;2.10;;
10056;SDS011;5068;51.286;7.518;2023-05-02T00:14:53;4.07;;;2.45;;
10056;SDS011;5068;51.286;7.518;2023-05-02T00:16:26;4.60;;;1.90;;
10056;SDS011;5068;51.286;7.518;2023-05-02T00:17:59;5.97;;;1.85;;
10056;SDS011;5068;51.286;7.518;2023-05-02T00:19:36;3.78;;;2.00;;
10056;SDS011;5068;51.286;7.518;2023-05-02T00:21:10;3.28;;;2.10;;
10056;SDS011;5068;51.286;7.518;2023-05-02T00:22:44;4.75;;;2.40;;
10056;SDS011;5068;51.286;7.518;2023-05-02T00:24:17;4.30;;;2.15;;
10056;SDS011;5068;51.286;7.518;2023-05-02T00:25:51;6.45;;;2.00;;
10056;SDS011;5068;51.286;7.518;2023-05-02T00:27:25;3.08;;;2.20;;
10056;SDS011;5068;51.286;7.518;2023-05-02T00:28:58;5.45;;;2.50;;
10056;SDS011;5068;51.286;7.518;2023-05-02T00:30:32;3.85;;;2.60;;
10056;SDS011;5068;51.286;7.518;2023-05-02T00:32:05;3.80;;;2.38;;
10056;SDS011;5068;51.286;7.518;2023-05-02T00:33:38;3.03;;;2.15;;
10056;SDS011;5068;51.286;7.518;2023-05-02T00:35:11;6.22;;;2.30;;
10056;SDS011;5068;51.286;7.518;2023-05-02T00:36:44;4.05;;;2.65;;
10056;SDS011;5068;51.286;7.518;2023-05-02T00:38:17;4.28;;;2.17;;
10056;SDS011;5068;51.286;7.518;2023-05-02T00:39:50;3.20;;;2.10;;
10056;SDS011;5068;51.286;7.518;2023-05-02T00:41:22;4.60;;;2.85;;
10056;SDS011;5068;51.286;7.518;2023-05-02T00:42:57;3.53;;;2.55;;
10056;SDS011;5068;51.286;7.518;2023-05-02T00:44:29;3.83;;;2.58;;
10056;SDS011;5068;51.286;7.518;2023-05-02T00:46:03;4.72;;;3.03;;
10056;SDS011;5068;51.286;7.518;2023-05-02T00:47:36;3.80;;;2.63;;
10056;SDS011;5068;51.286;7.518;2023-05-02T00:49:10;3.70;;;2.38;;
10056;SDS011;5068;51.286;7.518;2023-05-02T00:50:43;4.18;;;2.67;;
10056;SDS011;5068;51.286;7.518;2023-05-02T00:52:16;4.03;;;2.40;;
10056;SDS011;5068;51.286;7.518;2023-05-02T00:53:51;4.50;;;2.90;;
10056;SDS011;5068;51.286;7.518;2023-05-02T00:55:24;3.45;;;2.90;;
10056;SDS011;5068;51.286;7.518;2023-05-02T00:56:57;4.63;;;2.60;;
10056;SDS011;5068;51.286;7.518;2023-05-02T00:58:32;4.57;;;2.90;;
10056;SDS011;5068;51.286;7.518;2023-05-02T01:01:52;6.18;;;3.15;;
10056;SDS011;5068;51.286;7.518;2023-05-02T01:03:38;4.88;;;2.95;;
10056;SDS011;5068;51.286;7.518;2023-05-02T01:05:24;6.10;;;3.35;;
10056;SDS011;5068;51.286;7.518;2023-05-02T01:07:13;4.78;;;3.03;;
10056;SDS011;5068;51.286;7.518;2023-05-02T01:09:06;4.10;;;2.97;;
10056;SDS011;5068;51.286;7.518;2023-05-02T01:10:55;4.68;;;3.35;;
10056;SDS011;5068;51.286;7.518;2023-05-02T01:12:40;5.90;;;3.63;;
10056;SDS011;5068;51.286;7.518;2023-05-02T01:14:19;3.80;;;2.83;;
10056;SDS011;5068;51.286;7.518;2023-05-02T01:15:55;6.40;;;3.38;;
10056;SDS011;5068;51.286;7.518;2023-05-02T01:17:30;5.28;;;3.78;;
10056;SDS011;5068;51.286;7.518;2023-05-02T01:19:05;7.60;;;3.83;;
10056;SDS011;5068;51.286;7.518;2023-05-02T01:20:51;5.15;;;3.83;;
10056;SDS011;5068;51.286;7.518;2023-05-02T01:22:28;6.05;;;4.38;;
10056;SDS011;5068;51.286;7.518;2023-05-02T01:24:06;6.18;;;4.63;;
10056;SDS011;5068;51.286;7.518;2023-05-02T01:25:53;7.40;;;4.68;;
10056;SDS011;5068;51.286;7.518;2023-05-02T01:27:50;6.57;;;4.78;;
10056;SDS011;5068;51.286;7.518;2023-05-02T01:29:38;6.85;;;5.07;;
10056;SDS011;5068;51.286;7.518;2023-05-02T01:31:14;7.03;;;5.47;;
10056;SDS011;5068;51.286;7.518;2023-05-02T01:32:49;8.30;;;5.88;;
10056;SDS011;5068;51.286;7.518;2023-05-02T01:34:26;9.48;;;6.15;;
10056;SDS011;5068;51.286;7.518;2023-05-02T01:36:02;7.82;;;5.57;;
10056;SDS011;5068;51.286;7.518;2023-05-02T01:37:38;9.57;;;6.53;;
10056;SDS011;5068;51.286;7.518;2023-05-02T01:39:19;10.43;;;6.00;;
10056;SDS011;5068;51.286;7.518;2023-05-02T01:40:55;8.15;;;5.65;;
10056;SDS011;5068;51.286;7.518;2023-05-02T01:42:34;9.43;;;6.10;;
10056;SDS011;5068;51.286;7.518;2023-05-02T01:44:09;10.15;;;6.00;;
10056;SDS011;5068;51.286;7.518;2023-05-02T01:45:44;8.50;;;6.28;;
10056;SDS011;5068;51.286;7.518;2023-05-02T01:47:22;9.02;;;6.55;;
10056;SDS011;5068;51.286;7.518;2023-05-02T01:48:58;8.52;;;6.40;;
10056;SDS011;5068;51.286;7.518;2023-05-02T01:50:37;10.13;;;6.47;;
10056;SDS011;5068;51.286;7.518;2023-05-02T01:52:14;8.85;;;6.35;;
10056;SDS011;5068;51.286;7.518;2023-05-02T01:53:53;9.73;;;6.85;;
10056;SDS011;5068;51.286;7.518;2023-05-02T01:55:25;9.13;;;5.93;;
10056;SDS011;5068;51.286;7.518;2023-05-02T01:57:00;8.20;;;5.13;;
10056;SDS011;5068;51.286;7.518;2023-05-02T01:58:38;7.43;;;6.03;;
10056;SDS011;5068;51.286;7.518;2023-05-02T02:00:12;8.52;;;6.10;;
10056;SDS011;5068;51.286;7.518;2023-05-02T02:01:50;8.05;;;5.45;;
10056;SDS011;5068;51.286;7.518;2023-05-02T02:03:24;7.45;;;5.70;;
10056;SDS011;5068;51.286;7.518;2023-05-02T02:04:58;8.52;;;5.63;;
10056;SDS011;5068;51.286;7.518;2023-05-02T02:06:36;8.65;;;5.97;;
10056;SDS011;5068;51.286;7.518;2023-05-02T02:08:15;9.07;;;6.07;;
10056;SDS011;5068;51.286;7.518;2023-05-02T02:09:49;8.70;;;5.68;;
10056;SDS011;5068;51.286;7.518;2023-05-02T02:13:00;7.93;;;5.30;;
10056;SDS011;5068;51.286;7.518;2023-05-02T02:14:45;7.93;;;4.90;;
10056;SDS011;5068;51.286;7.518;2023-05-02T02:16:27;8.63;;;5.32;;
10056;SDS011;5068;51.286;7.518;2023-05-02T02:18:08;8.98;;;5.28;;
10056;SDS011;5068;51.286;7.518;2023-05-02T02:19:47;7.70;;;5.63;;
10056;SDS011;5068;51.286;7.518;2023-05-02T02:21:24;9.93;;;5.72;;
10056;SDS011;5068;51.286;7.518;2023-05-02T02:23:03;7.63;;;6.03;;
10056;SDS011;5068;51.286;7.518;2023-05-02T02:24:39;10.38;;;5.65;;
10056;SDS011;5068;51.286;7.518;2023-05-02T02:26:14;7.85;;;5.53;;
10056;SDS011;5068;51.286;7.518;2023-05-02T02:27:51;7.35;;;5.25;;
10056;SDS011;5068;51.286;7.518;2023-05-02T02:29:25;8.23;;;5.30;;
10056;SDS011;5068;51.286;7.518;2023-05-02T02:30:58;7.35;;;4.90;;
10056;SDS011;5068;51.286;7.518;2023-05-02T02:32:32;8.07;;;5.20;;
10056;SDS011;5068;51.286;7.518;2023-05-02T02:34:07;8.68;;;5.80;;
10056;SDS011;5068;51.286;7.518;2023-05-02T02:35:41;8.75;;;5.38;;
10056;SDS011;5068;51.286;7.518;2023-05-02T02:37:22;8.27;;;5.57;;
10056;SDS011;5068;51.286;7.518;2023-05-02T02:39:07;8.75;;;5.78;;
10056;SDS011;5068;51.286;7.518;2023-05-02T02:40:55;7.25;;;5.03;;
10056;SDS011;5068;51.286;7.518;2023-05-02T02:44:23;8.80;;;5.15;;
10056;SDS011;5068;51.286;7.518;2023-05-02T02:46:13;9.02;;;5.55;;
10056;SDS011;5068;51.286;7.518;2023-05-02T02:48:02;8.45;;;5.55;;
10056;SDS011;5068;51.286;7.518;2023-05-02T02:49:54;10.95;;;6.35;;
10056;SDS011;5068;51.286;7.518;2023-05-02T02:51:43;11.93;;;6.65;;
10056;SDS011;5068;51.286;7.518;2023-05-02T02:53:25;12.38;;;7.60;;
10056;SDS011;5068;51.286;7.518;2023-05-02T02:55:19;10.43;;;6.93;;
10056;SDS011;5068;51.286;7.518;2023-05-02T02:57:10;12.65;;;8.00;;
10056;SDS011;5068;51.286;7.518;2023-05-02T02:58:54;13.23;;;7.57;;
10056;SDS011;5068;51.286;7.518;2023-05-02T03:00:34;11.77;;;7.50;;
10056;SDS011;5068;51.286;7.518;2023-05-02T03:02:11;10.38;;;6.90;;
10056;SDS011;5068;51.286;7.518;2023-05-02T03:03:48;10.63;;;7.45;;
10056;SDS011;5068;51.286;7.518;2023-05-02T03:05:26;10.80;;;7.32;;
10056;SDS011;5068;51.286;7.518;2023-05-02T03:07:01;11.35;;;7.32;;
10056;SDS011;5068;51.286;7.518;2023-05-02T03:08:37;12.88;;;7.90;;
10056;SDS011;5068;51.286;7.518;2023-05-02T03:10:13;14.05;;;8.00;;
10056;SDS011;5068;51.286;7.518;2023-05-02T03:11:46;14.07;;;8.75;;
10056;SDS011;5068;51.286;7.518;2023-05-02T03:13:20;14.57;;;8.90;;
10056;SDS011;5068;51.286;7.518;2023-05-02T03:14:53;20.42;;;12.27;;
10056;SDS011;5068;51.286;7.518;2023-05-02T03:16:42;20.48;;;12.77;;
10056;SDS011;5068;51.286;7.518;2023-05-02T03:18:18;20.83;;;13.15;;
10056;SDS011;5068;51.286;7.518;2023-05-02T03:19:52;21.40;;;12.88;;
10056;SDS011;5068;51.286;7.518;2023-05-02T03:21:26;24.88;;;14.63;;
10056;SDS011;5068;51.286;7.518;2023-05-02T03:23:05;24.67;;;15.30;;
10056;SDS011;5068;51.286;7.518;2023-05-02T03:24:38;27.08;;;16.48;;
10056;SDS011;5068;51.286;7.518;2023-05-02T03:26:13;23.35;;;14.45;;
10056;SDS011;5068;51.286;7.518;2023-05-02T03:27:46;27.55;;;15.13;;
10056;SDS011;5068;51.286;7.518;2023-05-02T03:29:20;24.00;;;15.32;;
10056;SDS011;5068;51.286;7.518;2023-05-02T03:30:53;26.65;;;16.30;;
10056;SDS011;5068;51.286;7.518;2023-05-02T03:32:25;26.23;;;15.90;;
10056;SDS011;5068;51.286;7.518;2023-05-02T03:33:59;24.48;;;15.55;;
10056;SDS011;5068;51.286;7.518;2023-05-02T03:35:32;24.27;;;15.30;;
10056;SDS011;5068;51.286;7.518;2023-05-02T03:37:07;25.33;;;15.18;;
10056;SDS011;5068;51.286;7.518;2023-05-02T03:38:41;25.63;;;15.65;;
10056;SDS011;5068;51.286;7.518;2023-05-02T03:40:16;25.00;;;16.63;;
10056;SDS011;5068;51.286;7.518;2023-05-02T03:41:52;22.48;;;15.63;;
10056;SDS011;5068;51.286;7.518;2023-05-02T03:43:27;25.40;;;14.95;;
10056;SDS011;5068;51.286;7.518;2023-05-02T03:45:00;21.85;;;14.10;;
10056;SDS011;5068;51.286;7.518;2023-05-02T03:46:33;24.08;;;15.13;;
10056;SDS011;5068;51.286;7.518;2023-05-02T03:48:11;21.98;;;12.52;;
10056;SDS011;5068;51.286;7.518;2023-05-02T03:49:44;20.75;;;13.27;;
10056;SDS011;5068;51.286;7.518;2023-05-02T03:51:18;22.13;;;13.45;;
10056;SDS011;5068;51.286;7.518;2023-05-02T03:52:56;26.92;;;13.73;;
10056;SDS011;5068;51.286;7.518;2023-05-02T03:54:39;21.70;;;13.00;;
10056;SDS011;5068;51.286;7.518;2023-05-02T03:56:15;23.52;;;14.00;;
10056;SDS011;5068;51.286;7.518;2023-05-02T03:57:59;22.08;;;13.52;;
10056;SDS011;5068;51.286;7.518;2023-05-02T03:59:33;20.48;;;12.85;;
10056;SDS011;5068;51.286;7.518;2023-05-02T04:01:15;20.35;;;12.32;;
10056;SDS011;5068;51.286;7.518;2023-05-02T04:02:52;21.02;;;12.88;;
10056;SDS011;5068;51.286;7.518;2023-05-02T04:04:28;18.75;;;12.05;;
10056;SDS011;5068;51.286;7.518;2023-05-02T04:06:03;20.17;;;12.30;;
10056;SDS011;5068;51.286;7.518;2023-05-02T04:07:37;20.52;;;12.25;;
10056;SDS011;5068;51.286;7.518;2023-05-02T04:09:12;19.33;;;11.30;;
10056;SDS011;5068;51.286;7.518;2023-05-02T04:10:52;17.65;;;12.02;;
10056;SDS011;5068;51.286;7.518;2023-05-02T04:12:25;17.75;;;10.85;;
10056;SDS011;5068;51.286;7.518;2023-05-02T04:14:01;18.02;;;10.63;;
10056;SDS011;5068;51.286;7.518;2023-05-02T04:15:34;14.98;;;10.32;;
10056;SDS011;5068;51.286;7.518;2023-05-02T04:17:08;18.17;;;10.68;;
10056;SDS011;5068;51.286;7.518;2023-05-02T04:20:22;17.27;;;9.82;;
10056;SDS011;5068;51.286;7.518;2023-05-02T04:21:58;17.25;;;9.65;;
10056;SDS011;5068;51.286;7.518;2023-05-02T04:23:30;17.00;;;9.73;;
10056;SDS011;5068;51.286;7.518;2023-05-02T04:25:07;18.55;;;10.68;;
10056;SDS011;5068;51.286;7.518;2023-05-02T04:26:43;16.65;;;10.23;;
10056;SDS011;5068;51.286;7.518;2023-05-02T04:28:18;15.90;;;10.77;;
10056;SDS011;5068;51.286;7.518;2023-05-02T04:29:52;17.92;;;10.63;;
10056;SDS011;5068;51.286;7.518;2023-05-02T04:31:26;18.35;;;10.93;;
10056;SDS011;5068;51.286;7.518;2023-05-02T04:32:59;17.92;;;10.50;;
10056;SDS011;5068;51.286;7.518;2023-05-02T04:34:36;14.88;;;9.40;;
10056;SDS011;5068;51.286;7.518;2023-05-02T04:36:10;16.98;;;9.30;;
10056;SDS011;5068;51.286;7.518;2023-05-02T04:37:46;16.30;;;9.63;;
10056;SDS011;5068;51.286;7.518;2023-05-02T04:39:20;15.18;;;9.13;;
10056;SDS011;5068;51.286;7.518;2023-05-02T04:41:21;16.17;;;10.15;;
10056;SDS011;5068;51.286;7.518;2023-05-02T04:43:00;18.23;;;9.60;;
10056;SDS011;5068;51.286;7.518;2023-05-02T04:46:20;17.05;;;9.25;;
10056;SDS011;5068;51.286;7.518;2023-05-02T04:47:54;12.00;;;8.48;;
10056;SDS011;5068;51.286;7.518;2023-05-02T04:49:27;16.20;;;9.38;;
10056;SDS011;5068;51.286;7.518;2023-05-02T04:51:00;13.95;;;8.63;;
10056;SDS011;5068;51.286;7.518;2023-05-02T04:52:34;13.48;;;7.78;;
10056;SDS011;5068;51.286;7.518;2023-05-02T04:54:08;14.50;;;8.68;;
10056;SDS011;5068;51.286;7.518;2023-05-02T04:55:42;12.70;;;8.60;;
10056;SDS011;5068;51.286;7.518;2023-05-02T04:57:16;12.73;;;8.77;;
10056;SDS011;5068;51.286;7.518;2023-05-02T04:58:56;12.85;;;8.07;;
10056;SDS011;5068;51.286;7.518;2023-05-02T05:00:29;12.07;;;7.35;;
10056;SDS011;5068;51.286;7.518;2023-05-02T05:02:03;12.05;;;7.50;;
10056;SDS011;5068;51.286;7.518;2023-05-02T05:03:39;13.68;;;8.05;;
10056;SDS011;5068;51.286;7.518;2023-05-02T05:05:13;12.00;;;7.35;;
10056;SDS011;5068;51.286;7.518;2023-05-02T05:06:46;12.80;;;7.47;;
10056;SDS011;5068;51.286;7.518;2023-05-02T05:08:21;12.25;;;7.88;;
10056;SDS011;5068;51.286;7.518;2023-05-02T05:09:54;11.25;;;7.07;;
10056;SDS011;5068;51.286;7.518;2023-05-02T05:11:30;11.23;;;7.78;;
10056;SDS011;5068;51.286;7.518;2023-05-02T05:13:05;12.45;;;7.38;;
10056;SDS011;5068;51.286;7.518;2023-05-02T05:16:11;9.38;;;6.28;;
10056;SDS011;5068;51.286;7.518;2023-05-02T05:17:45;9.30;;;5.93;;
10056;SDS011;5068;51.286;7.518;2023-05-02T05:19:18;10.40;;;6.47;;
10056;SDS011;5068;51.286;7.518;2023-05-02T05:20:52;11.93;;;7.85;;
10056;SDS011;5068;51.286;7.518;2023-05-02T05:22:25;10.65;;;7.07;;
10056;SDS011;5068;51.286;7.518;2023-05-02T05:23:59;12.05;;;7.32;;
10056;SDS011;5068;51.286;7.518;2023-05-02T05:25:33;10.60;;;6.93;;
10056;SDS011;5068;51.286;7.518;2023-05-02T05:27:06;11.15;;;6.50;;
10056;SDS011;5068;51.286;7.518;2023-05-02T05:28:41;13.07;;;7.63;;
10056;SDS011;5068;51.286;7.518;2023-05-02T05:30:16;10.50;;;6.38;;
10056;SDS011;5068;51.286;7.518;2023-05-02T05:31:50;11.38;;;7.60;;
10056;SDS011;5068;51.286;7.518;2023-05-02T05:33:24;11.60;;;7.25;;
10056;SDS011;5068;51.286;7.518;2023-05-02T05:34:57;11.10;;;7.30;;
10056;SDS011;5068;51.286;7.518;2023-05-02T05:36:31;12.00;;;7.57;;
10056;SDS011;5068;51.286;7.518;2023-05-02T05:38:06;11.57;;;7.50;;
10056;SDS011;5068;51.286;7.518;2023-05-02T05:39:41;9.60;;;6.78;;
10056;SDS011;5068;51.286;7.518;2023-05-02T05:41:15;11.10;;;7.55;;
10056;SDS011;5068;51.286;7.518;2023-05-02T05:42:51;11.73;;;7.55;;
10056;SDS011;5068;51.286;7.518;2023-05-02T05:44:31;11.25;;;6.97;;
10056;SDS011;5068;51.286;7.518;2023-05-02T05:47:39;10.82;;;6.97;;
10056;SDS011;5068;51.286;7.518;2023-05-02T05:49:14;10.57;;;6.63;;
10056;SDS011;5068;51.286;7.518;2023-05-02T05:50:49;12.20;;;6.93;;
10056;SDS011;5068;51.286;7.518;2023-05-02T05:52:23;9.90;;;7.30;;
10056;SDS011;5068;51.286;7.518;2023-05-02T05:53:58;11.55;;;7.30;;
10056;SDS011;5068;51.286;7.518;2023-05-02T05:55:31;11.25;;;7.03;;
10056;SDS011;5068;51.286;7.518;2023-05-02T05:57:08;10.13;;;6.97;;
10056;SDS011;5068;51.286;7.518;2023-05-02T05:58:41;12.15;;;6.40;;
10056;SDS011;5068;51.286;7.518;2023-05-02T06:00:18;10.55;;;6.15;;
10056;SDS011;5068;51.286;7.518;2023-05-02T06:01:54;9.95;;;6.53;;
10056;SDS011;5068;51.286;7.518;2023-05-02T06:03:29;11.23;;;7.30;;
10056;SDS011;5068;51.286;7.518;2023-05-02T06:05:02;9.85;;;7.00;;
10056;SDS011;5068;51.286;7.518;2023-05-02T06:06:36;10.70;;;7.20;;
10056;SDS011;5068;51.286;7.518;2023-05-02T06:08:09;10.80;;;7.15;;
10056;SDS011;5068;51.286;7.518;2023-05-02T06:09:42;9.77;;;6.75;;
10056;SDS011;5068;51.286;7.518;2023-05-02T06:11:16;10.60;;;7.32;;
10056;SDS011;5068;51.286;7.518;2023-05-02T06:12:49;9.25;;;5.97;;
10056;SDS011;5068;51.286;7.518;2023-05-02T06:14:27;9.15;;;5.25;;
10056;SDS011;5068;51.286;7.518;2023-05-02T06:16:01;9.00;;;6.13;;
10056;SDS011;5068;51.286;7.518;2023-05-02T06:17:35;7.68;;;5.85;;
10056;SDS011;5068;51.286;7.518;2023-05-02T06:19:08;7.93;;;6.00;;
10056;SDS011;5068;51.286;7.518;2023-05-02T06:20:43;9.02;;;5.45;;
10056;SDS011;5068;51.286;7.518;2023-05-02T06:22:16;8.10;;;6.05;;
10056;SDS011;5068;51.286;7.518;2023-05-02T06:23:49;8.23;;;5.68;;
10056;SDS011;5068;51.286;7.518;2023-05-02T06:25:22;9.88;;;5.97;;
10056;SDS011;5068;51.286;7.518;2023-05-02T06:26:55;7.47;;;5.47;;
10056;SDS011;5068;51.286;7.518;2023-05-02T06:28:29;10.05;;;6.10;;
10056;SDS011;5068;51.286;7.518;2023-05-02T06:30:04;7.43;;;5.45;;
10056;SDS011;5068;51.286;7.518;2023-05-02T06:31:40;8.27;;;5.55;;
10056;SDS011;5068;51.286;7.518;2023-05-02T06:33:13;9.60;;;5.88;;
10056;SDS011;5068;51.286;7.518;2023-05-02T06:34:47;7.18;;;5.07;;
10056;SDS011;5068;51.286;7.518;2023-05-02T06:36:20;7.30;;;4.78;;
10056;SDS011;5068;51.286;7.518;2023-05-02T06:37:53;5.85;;;3.97;;
10056;SDS011;5068;51.286;7.518;2023-05-02T06:39:26;5.43;;;3.63;;
10056;SDS011;5068;51.286;7.518;2023-05-02T06:41:00;6.13;;;4.10;;
10056;SDS011;5068;51.286;7.518;2023-05-02T06:42:33;5.20;;;3.53;;
10056;SDS011;5068;51.286;7.518;2023-05-02T06:44:06;6.40;;;3.55;;
10056;SDS011;5068;51.286;7.518;2023-05-02T06:45:39;4.70;;;3.17;;
10056;SDS011;5068;51.286;7.518;2023-05-02T06:47:14;4.70;;;3.30;;
10056;SDS011;5068;51.286;7.518;2023-05-02T06:48:47;4.38;;;3.58;;
10056;SDS011;5068;51.286;7.518;2023-05-02T06:50:21;7.60;;;3.58;;
10056;SDS011;5068;51.286;7.518;2023-05-02T06:51:55;5.03;;;3.35;;
10056;SDS011;5068;51.286;7.518;2023-05-02T06:53:28;5.50;;;3.47;;
10056;SDS011;5068;51.286;7.518;2023-05-02T06:55:03;5.47;;;3.05;;
10056;SDS011;5068;51.286;7.518;2023-05-02T06:56:38;5.72;;;3.47;;
10056;SDS011;5068;51.286;7.518;2023-05-02T06:58:11;4.03;;;3.35;;
10056;SDS011;5068;51.286;7.518;2023-05-02T06:59:45;4.07;;;3.38;;
10056;SDS011;5068;51.286;7.518;2023-05-02T07:01:18;5.70;;;3.38;;
10056;SDS011;5068;51.286;7.518;2023-05-02T07:02:52;4.97;;;3.47;;
10056;SDS011;5068;51.286;7.518;2023-05-02T07:04:26;6.15;;;3.40;;
10056;SDS011;5068;51.286;7.518;2023-05-02T07:05:59;5.53;;;3.60;;
10056;SDS011;5068;51.286;7.518;2023-05-02T07:07:33;5.40;;;2.80;;
10056;SDS011;5068;51.286;7.518;2023-05-02T07:09:06;3.88;;;2.97;;
10056;SDS011;5068;51.286;7.518;2023-05-02T07:10:39;3.65;;;2.85;;
10056;SDS011;5068;51.286;7.518;2023-05-02T07:12:12;4.57;;;3.13;;
10056;SDS011;5068;51.286;7.518;2023-05-02T07:13:45;4.95;;;2.72;;
10056;SDS011;5068;51.286;7.518;2023-05-02T07:15:18;5.45;;;2.50;;
10056;SDS011;5068;51.286;7.518;2023-05-02T07:16:52;3.97;;;2.63;;
10056;SDS011;5068;51.286;7.518;2023-05-02T07:18:26;2.90;;;2.13;;
10056;SDS011;5068;51.286;7.518;2023-05-02T07:20:00;2.95;;;1.98;;
10056;SDS011;5068;51.286;7.518;2023-05-02T07:21:34;3.83;;;1.67;;
10056;SDS011;5068;51.286;7.518;2023-05-02T07:23:07;3.17;;;1.77;;
10056;SDS011;5068;51.286;7.518;2023-05-02T07:24:40;2.15;;;1.63;;
10056;SDS011;5068;51.286;7.518;2023-05-02T07:26:14;3.97;;;2.05;;
10056;SDS011;5068;51.286;7.518;2023-05-02T07:27:49;3.50;;;2.00;;
10056;SDS011;5068;51.286;7.518;2023-05-02T07:29:22;3.65;;;1.88;;
10056;SDS011;5068;51.286;7.518;2023-05-02T07:30:55;4.63;;;2.38;;
10056;SDS011;5068;51.286;7.518;2023-05-02T07:32:30;3.47;;;2.17;;
10056;SDS011;5068;51.286;7.518;2023-05-02T07:34:04;3.60;;;2.10;;
10056;SDS011;5068;51.286;7.518;2023-05-02T07:35:37;3.70;;;2.35;;
10056;SDS011;5068;51.286;7.518;2023-05-02T07:37:17;3.00;;;1.87;;
10056;SDS011;5068;51.286;7.518;2023-05-02T07:39:05;3.63;;;1.80;;
10056;SDS011;5068;51.286;7.518;2023-05-02T07:40:38;3.40;;;2.10;;
10056;SDS011;5068;51.286;7.518;2023-05-02T07:42:12;6.32;;;2.03;;
10056;SDS011;5068;51.286;7.518;2023-05-02T07:43:45;3.25;;;1.98;;
10056;SDS011;5068;51.286;7.518;2023-05-02T07:45:18;3.47;;;1.85;;
10056;SDS011;5068;51.286;7.518;2023-05-02T07:46:51;3.30;;;1.80;;
10056;SDS011;5068;51.286;7.518;2023-05-02T07:48:25;5.10;;;2.33;;
10056;SDS011;5068;51.286;7.518;2023-05-02T07:50:00;3.90;;;2.20;;
10056;SDS011;5068;51.286;7.518;2023-05-02T07:51:35;5.90;;;2.17;;
10056;SDS011;5068;51.286;7.518;2023-05-02T07:53:10;3.10;;;2.28;;
10056;SDS011;5068;51.286;7.518;2023-05-02T07:54:43;3.90;;;2.00;;
10056;SDS011;5068;51.286;7.518;2023-05-02T07:56:16;5.75;;;2.58;;
10056;SDS011;5068;51.286;7.518;2023-05-02T07:57:49;4.22;;;1.90;;
10056;SDS011;5068;51.286;7.518;2023-05-02T07:59:22;5.00;;;2.70;;
10056;SDS011;5068;51.286;7.518;2023-05-02T08:00:56;3.97;;;2.33;;
10056;SDS011;5068;51.286;7.518;2023-05-02T08:02:29;4.28;;;2.15;;
10056;SDS011;5068;51.286;7.518;2023-05-02T08:04:02;2.58;;;1.85;;
10056;SDS011;5068;51.286;7.518;2023-05-02T08:05:37;4.60;;;2.30;;
10056;SDS011;5068;51.286;7.518;2023-05-02T08:07:11;3.60;;;2.20;;
10056;SDS011;5068;51.286;7.518;2023-05-02T08:08:44;3.03;;;2.47;;
10056;SDS011;5068;51.286;7.518;2023-05-02T08:10:17;4.10;;;2.45;;
10056;SDS011;5068;51.286;7.518;2023-05-02T08:11:50;4.57;;;2.33;;
10056;SDS011;5068;51.286;7.518;2023-05-02T08:13:23;3.58;;;2.22;;
10056;SDS011;5068;51.286;7.518;2023-05-02T08:14:57;3.97;;;2.50;;
10056;SDS011;5068;51.286;7.518;2023-05-02T08:16:30;3.70;;;2.35;;
10056;SDS011;5068;51.286;7.518;2023-05-02T08:18:03;3.17;;;2.17;;
10056;SDS011;5068;51.286;7.518;2023-05-02T08:19:37;5.18;;;2.30;;
10056;SDS011;5068;51.286;7.518;2023-05-02T08:21:12;4.88;;;2.50;;
10056;SDS011;5068;51.286;7.518;2023-05-02T08:24:18;3.03;;;2.20;;
10056;SDS011;5068;51.286;7.518;2023-05-02T08:25:52;5.88;;;2.53;;
10056;SDS011;5068;51.286;7.518;2023-05-02T08:27:25;2.92;;;2.20;;
10056;SDS011;5068;51.286;7.518;2023-05-02T08:28:59;3.70;;;2.30;;
10056;SDS011;5068;51.286;7.518;2023-05-02T08:30:34;4.15;;;2.35;;
10056;SDS011;5068;51.286;7.518;2023-05-02T08:32:07;5.72;;;2.78;;
10056;SDS011;5068;51.286;7.518;2023-05-02T08:33:41;2.97;;;2.30;;
10056;SDS011;5068;51.286;7.518;2023-05-02T08:35:14;3.58;;;2.38;;
10056;SDS011;5068;51.286;7.518;2023-05-02T08:36:49;4.53;;;3.42;;
10056;SDS011;5068;51.286;7.518;2023-05-02T08:38:22;5.68;;;3.42;;
10056;SDS011;5068;51.286;7.518;2023-05-02T08:39:56;5.03;;;3.00;;
10056;SDS011;5068;51.286;7.518;2023-05-02T08:41:29;6.18;;;4.13;;
10056;SDS011;5068;51.286;7.518;2023-05-02T08:43:03;4.47;;;3.70;;
10056;SDS011;5068;51.286;7.518;2023-05-02T08:44:37;3.90;;;3.00;;
10056;SDS011;5068;51.286;7.518;2023-05-02T08:46:11;5.95;;;4.00;;
10056;SDS011;5068;51.286;7.518;2023-05-02T08:47:47;4.80;;;3.90;;
10056;SDS011;5068;51.286;7.518;2023-05-02T08:49:23;5.78;;;3.30;;
10056;SDS011;5068;51.286;7.518;2023-05-02T08:50:58;5.88;;;3.90;;
10056;SDS011;5068;51.286;7.518;2023-05-02T08:52:35;4.78;;;4.03;;
10056;SDS011;5068;51.286;7.518;2023-05-02T08:54:09;4.65;;;3.80;;
10056;SDS011;5068;51.286;7.518;2023-05-02T08:55:42;4.13;;;3.72;;
10056;SDS011;5068;51.286;7.518;2023-05-02T08:57:16;3.92;;;3.30;;
10056;SDS011;5068;51.286;7.518;2023-05-02T08:58:49;4.40;;;3.40;;
10056;SDS011;5068;51.286;7.518;2023-05-02T09:00:23;5.50;;;3.38;;
10056;SDS011;5068;51.286;7.518;2023-05-02T09:01:58;3.78;;;3.25;;
10056;SDS011;5068;51.286;7.518;2023-05-02T09:03:39;4.15;;;2.78;;
10056;SDS011;5068;51.286;7.518;2023-05-02T09:05:16;3.10;;;2.33;;
10056;SDS011;5068;51.286;7.518;2023-05-02T09:06:52;2.90;;;2.63;;
10056;SDS011;5068;51.286;7.518;2023-05-02T09:08:26;3.72;;;2.30;;
10056;SDS011;5068;51.286;7.518;2023-05-02T09:09:59;3.03;;;2.17;;
10056;SDS011;5068;51.286;7.518;2023-05-02T09:11:33;2.22;;;1.90;;
10056;SDS011;5068;51.286;7.518;2023-05-02T09:13:26;2.40;;;1.80;;
10056;SDS011;5068;51.286;7.518;2023-05-02T09:15:08;2.30;;;1.65;;
10056;SDS011;5068;51.286;7.518;2023-05-02T09:16:42;2.55;;;1.50;;
10056;SDS011;5068;51.286;7.518;2023-05-02T09:18:18;1.67;;;1.38;;
10056;SDS011;5068;51.286;7.518;2023-05-02T09:19:58;1.70;;;1.50;;
10056;SDS011;5068;51.286;7.518;2023-05-02T09:21:34;2.13;;;1.38;;
10056;SDS011;5068;51.286;7.518;2023-05-02T09:23:10;1.50;;;1.23;;
10056;SDS011;5068;51.286;7.518;2023-05-02T09:24:46;2.17;;;1.25;;
10056;SDS011;5068;51.286;7.518;2023-05-02T09:26:26;2.10;;;1.20;;
10056;SDS011;5068;51.286;7.518;2023-05-02T09:28:02;2.65;;;1.50;;
10056;SDS011;5068;51.286;7.518;2023-05-02T09:29:36;1.95;;;1.45;;
10056;SDS011;5068;51.286;7.518;2023-05-02T09:31:11;2.30;;;1.20;;
10056;SDS011;5068;51.286;7.518;2023-05-02T09:33:02;2.10;;;1.25;;
10056;SDS011;5068;51.286;7.518;2023-05-02T09:34:35;1.80;;;1.40;;
10056;SDS011;5068;51.286;7.518;2023-05-02T09:36:11;2.45;;;1.33;;
10056;SDS011;5068;51.286;7.518;2023-05-02T09:37:46;2.30;;;1.25;;
10056;SDS011;5068;51.286;7.518;2023-05-02T09:39:20;2.25;;;1.17;;
10056;SDS011;5068;51.286;7.518;2023-05-02T09:40:58;2.05;;;1.23;;
10056;SDS011;5068;51.286;7.518;2023-05-02T09:42:33;1.60;;;1.20;;
10056;SDS011;5068;51.286;7.518;2023-05-02T09:44:08;4.38;;;2.00;;
10056;SDS011;5068;51.286;7.518;2023-05-02T09:45:43;4.07;;;1.75;;
10056;SDS011;5068;51.286;7.518;2023-05-02T09:47:29;3.63;;;1.70;;
10056;SDS011;5068;51.286;7.518;2023-05-02T09:49:03;3.25;;;2.08;;
10056;SDS011;5068;51.286;7.518;2023-05-02T09:50:36;3.17;;;2.17;;
10056;SDS011;5068;51.286;7.518;2023-05-02T09:52:10;5.03;;;2.90;;
10056;SDS011;5068;51.286;7.518;2023-05-02T09:53:44;4.65;;;3.38;;
10056;SDS011;5068;51.286;7.518;2023-05-02T09:55:21;6.32;;;3.38;;